Main page
METAR-TAF:

METAR-TAF

Airports :

Colonel Carlos Concha Torres Airport

Esmeraldas, Ecuador

latitude: 00-58-43N, longitude: 079-37-36W, elevation: 10 m

Current weather observation

The report was made 2 hours and 34 minutes ago, at 22:00 UTC
Wind 7 kt from the South
Temperature 25°C
Humidity 100%
Pressure 1012 hPa
Visibility 10 km or more
Few clouds at a height of 1000 ft
Scattered clouds at a height of 2600 ft
Broken clouds at a height of 8000 ft
light drizzle

METAR: SETN 202200Z 17007KT 9999 -DZ FEW010 SCT026 BKN080 25/25 Q1012 RMK A2988

Time: 19:34 (00:34 UTC)


TAF: missing

Weather observations and forecasts of more than 4000 airports (METAR and TAF reports).

The available stations are represented by yellow and red dots on the map.

Hover mouse over dot to see the name of the station.

Then click to see weather observations and forecasts.

To change the map : click on the green buttons with a black cross to zoom in, on the green button with a dash to zoom out, or on the green arrows for adjacent maps.


METAR-TAF: